Nuiqsut Airport
PAQT : now visible

Airfield :











YOU CAN JOIN US ON...

 
LOGIN :

Register | Disclaimer

   EN    FR    IT 

 









Legend :    VFR   Marginal VFR   IFR   Intensive IFR   Very Intensive IFR
Visi :
Ceiling :
>= 8 km
>= 3000ft
5 to 8 km
1000 to 3000 ft
1500m to 5 km
500 to 1000 ft
800 to 1500m
200 to 500 ft
< 800m
< 200 ft
Symbols :   Thunderstorms  Fog  Heavy snow  Heavy precipitations  Wind > 20 kt






- Airport Elevation : 38 ft
- IATA code : AQT


PAQT - Nuiqsut

CURRENT METAR :
  • 070053Z AUTO 23027KT 1/4SM FZFG BLSN VV008 M14/M16 A2953 RMK PK WND 22032/0027 SLP001 T11391156 TSNO PNO VIA AUTODIAL

EXPIRED METARs :
  • 062353Z AUTO 22026KT 1/2SM FZFG BLSN OVC005 M14/M16 A2952 RMK PK WND 22033/2325 SLP998 T11391161 11139 21172 53008 TSNO PNO VIA AUTODIAL
  • 062253Z AUTO 22027KT 1/2SM FZFG BLSN VV006 M14/M16 A2950 RMK PK WND 22033/2242 SLP991 T11391161 TSNO PNO VIA AUTODIAL
  • 062153Z AUTO 22026KT 1SM BLSN BR CLR M14/M16 A2950 RMK PK WND 22030/2135 SLP990 T11391161 TSNO PNO VIA AUTODIAL

TAF PAQT
Valid from the 07 at 00:00 until the 08 at 00:00 UTC


062339Z 0700/0724 22026KT 1/2SM -SN BLSN VV006
FM070600 25018G25KT 2SM -SN BLSN OVC010
FM071200 25020KT 3SM -SN BR OVC025



MET'MAP, your aeronautical weather chart ! - Copyright ORBIFLY December 2007 - Disclaimer

ORBIFLY MET'MAP TEAM :

Programming & Development : Alexandra Zaïnal
Concept & original design : Baudouin d'Aumeries
Assistance for programming : Marc-Olivier Méhu
Technical & hardware support : Manuel Goepfert

Contact : metmap@orbifly.com




SOURCES & CREDITS :

   NOAA       Earth
Advisory